Time;durP1;ratioP1;P1;durP2;ratioP2;P2;SDS_P1;SDS_P2;PMS_P1;PMS_P2;Temp;Humidity;BMP_temperature;BMP_pressure;BME280_temperature;BME280_humidity;BME280_pressure;Samples;Min_cycle;Max_cycle;Signal;HPM_P1;HPM_P2
2024/02/19 00:00:49;;;;;;;28.80;17.80;;;;;;;4.13;79.16;101370.23;107504;1291;22290;-57
2024/02/19 00:03:17;;;;;;;30.00;18.70;;;;;;;4.16;79.04;101367.55;107375;1303;22249;-59
2024/02/19 00:05:43;;;;;;;30.30;17.90;;;;;;;4.18;78.85;101365.54;107514;1304;22259;-61
2024/02/19 00:08:09;;;;;;;28.00;17.20;;;;;;;4.22;78.80;101358.10;107534;1310;22320;-59
2024/02/19 00:10:34;;;;;;;31.70;18.80;;;;;;;4.24;78.96;101352.18;107551;1291;23402;-59
2024/02/19 00:13:00;;;;;;;29.70;17.80;;;;;;;4.25;79.16;101343.50;107572;1304;22512;-60
2024/02/19 00:15:26;;;;;;;39.10;17.80;;;;;;;4.25;79.09;101339.07;107565;1307;22426;-59
2024/02/19 00:17:52;;;;;;;32.30;19.60;;;;;;;4.28;78.92;101331.45;107331;1312;22375;-58
2024/02/19 00:20:17;;;;;;;34.40;19.40;;;;;;;4.30;78.89;101326.36;107347;1291;23539;-60
2024/02/19 00:22:43;;;;;;;40.50;21.80;;;;;;;4.32;78.83;101318.73;106836;1310;25452;-58
2024/02/19 00:25:09;;;;;;;33.00;20.10;;;;;;;4.33;78.91;101316.88;104018;1312;22574;-58
2024/02/19 00:27:35;;;;;;;27.40;18.70;;;;;;;4.34;78.81;101313.65;107237;1309;22343;-61
2024/02/19 00:30:00;;;;;;;30.10;18.50;;;;;;;4.35;78.94;101308.73;107243;1306;22295;-59
2024/02/19 00:32:26;;;;;;;29.00;17.70;;;;;;;4.35;78.94;101306.69;107194;1294;22395;-59
2024/02/19 00:34:51;;;;;;;26.40;18.10;;;;;;;4.37;78.92;101298.02;107326;1312;23493;-60
2024/02/19 00:37:17;;;;;;;30.10;18.70;;;;;;;4.39;79.05;101297.36;107340;1305;22239;-61
2024/02/19 00:39:42;;;;;;;30.50;17.40;;;;;;;4.39;79.15;101294.64;107324;1309;22254;-59
2024/02/19 00:42:08;;;;;;;28.10;17.20;;;;;;;4.38;79.14;101287.45;107302;1293;22262;-61
2024/02/19 00:44:34;;;;;;;29.50;17.50;;;;;;;4.38;79.30;101281.64;107285;1311;22790;-59
2024/02/19 00:47:00;;;;;;;32.30;18.80;;;;;;;4.38;79.24;101274.81;107343;1304;22269;-59
2024/02/19 00:49:26;;;;;;;25.50;18.80;;;;;;;4.37;79.39;101268.98;104933;1310;23930;-61
2024/02/19 00:51:52;;;;;;;33.20;18.70;;;;;;;4.37;79.68;101264.21;104174;1294;26595;-58
2024/02/19 00:54:17;;;;;;;31.70;18.90;;;;;;;4.36;79.65;101256.35;103947;1297;22597;-59
2024/02/19 00:56:43;;;;;;;32.20;18.40;;;;;;;4.37;79.54;101252.26;104065;1311;22558;-61
2024/02/19 00:59:09;;;;;;;28.90;18.90;;;;;;;4.36;79.64;101244.56;103919;1300;25433;-57
2024/02/19 01:01:34;;;;;;;34.40;20.20;;;;;;;4.35;79.87;101242.66;103946;1292;22764;-59
2024/02/19 01:03:59;;;;;;;38.90;21.00;;;;;;;4.35;79.70;101236.69;103923;1307;25450;-59
2024/02/19 01:06:25;;;;;;;35.20;20.00;;;;;;;4.35;79.84;101231.91;103923;1312;22622;-61
2024/02/19 01:08:51;;;;;;;33.60;19.50;;;;;;;4.34;80.22;101222.67;104135;1312;24227;-59
2024/02/19 01:11:16;;;;;;;29.60;18.30;;;;;;;4.32;80.17;101216.17;103864;1288;24181;-58
2024/02/19 01:13:42;;;;;;;32.30;19.30;;;;;;;4.31;79.72;101207.09;103704;1312;22862;-61
2024/02/19 01:16:11;;;;;;;38.00;21.00;;;;;;;4.31;80.17;101201.11;103962;1297;23977;-62
2024/02/19 01:18:37;;;;;;;35.30;19.90;;;;;;;4.32;79.66;101191.24;103819;1300;22613;-58
2024/02/19 01:21:03;;;;;;;34.30;20.10;;;;;;;4.33;79.70;101188.02;103894;1310;22582;-61
2024/02/19 01:23:29;;;;;;;33.50;19.50;;;;;;;4.35;79.86;101179.52;103932;1294;24683;-60
2024/02/19 01:25:58;;;;;;;35.70;21.90;;;;;;;4.36;79.56;101176.80;103758;1294;25304;-57
2024/02/19 01:28:24;;;;;;;40.80;23.30;;;;;;;4.38;80.02;101178.03;103978;1298;22601;-60
2024/02/19 01:30:50;;;;;;;33.90;20.60;;;;;;;4.38;79.81;101171.71;103847;1308;23907;-59
2024/02/19 01:33:15;;;;;;;32.70;19.40;;;;;;;4.38;79.97;101177.35;103970;1294;23316;-59
2024/02/19 01:35:44;;;;;;;32.60;19.70;;;;;;;4.38;79.85;101170.88;103935;1295;22516;-63
2024/02/19 01:38:11;;;;;;;35.70;20.30;;;;;;;4.39;79.98;101168.84;106257;1304;22763;-60
2024/02/19 01:40:37;;;;;;;31.00;19.30;;;;;;;4.40;80.06;101159.98;104433;1297;22584;-60
2024/02/19 01:43:05;;;;;;;31.60;19.40;;;;;;;4.41;80.11;101158.12;103776;1293;22619;-57
2024/02/19 01:45:31;;;;;;;34.30;20.10;;;;;;;4.43;79.85;101157.81;107341;1310;22380;-58
2024/02/19 01:47:58;;;;;;;30.90;19.30;;;;;;;4.45;79.92;101152.73;107254;1310;22205;-58
2024/02/19 01:50:32;;;;;;;34.30;20.50;;;;;;;4.48;79.71;101148.17;105869;1305;23022;-58
2024/02/19 01:53:00;;;;;;;31.50;19.30;;;;;;;4.50;79.69;101143.44;104168;1298;22659;-59
2024/02/19 01:55:27;;;;;;;35.40;19.70;;;;;;;4.51;79.91;101138.33;104767;1308;23953;-58
2024/02/19 01:57:52;;;;;;;31.60;20.00;;;;;;;4.51;79.73;101134.92;103754;1312;24367;-61
2024/02/19 02:00:19;;;;;;;32.40;19.40;;;;;;;4.52;79.66;101128.63;103671;1312;22845;-59
2024/02/19 02:02:45;;;;;;;34.30;19.60;;;;;;;4.53;79.72;101127.10;105014;1294;22571;-60
2024/02/19 02:05:13;;;;;;;35.90;20.30;;;;;;;4.54;79.55;101121.30;103595;1294;24393;-60
2024/02/19 02:07:43;;;;;;;33.40;21.30;;;;;;;4.55;79.45;101125.77;103854;1304;22688;-58
2024/02/19 02:10:09;;;;;;;34.40;20.00;;;;;;;4.55;79.63;101122.52;104012;1306;25221;-59
2024/02/19 02:12:35;;;;;;;34.80;20.90;;;;;;;4.55;79.54;101121.66;103793;1289;22579;-59
2024/02/19 02:15:01;;;;;;;31.20;21.10;;;;;;;4.55;79.41;101120.30;103494;1297;22715;-61
2024/02/19 02:17:27;;;;;;;32.90;22.00;;;;;;;4.54;79.78;101119.43;104083;1309;22917;-60
2024/02/19 02:19:52;;;;;;;37.00;22.50;;;;;;;4.49;79.99;101112.67;104038;1297;22508;-59
2024/02/19 02:22:18;;;;;;;37.70;22.70;;;;;;;4.42;80.40;101109.16;103819;1297;22556;-61
2024/02/19 02:24:46;;;;;;;34.90;21.10;;;;;;;4.36;80.48;101111.61;103951;1291;22579;-60
2024/02/19 02:27:12;;;;;;;38.90;23.10;;;;;;;4.29;80.49;101110.46;103976;1295;23188;-56
2024/02/19 02:29:37;;;;;;;38.40;22.80;;;;;;;4.26;81.48;101106.48;103826;1304;25420;-60
2024/02/19 02:32:04;;;;;;;33.60;22.30;;;;;;;4.24;81.28;101106.96;103668;1304;22578;-60
2024/02/19 02:34:30;;;;;;;35.20;22.70;;;;;;;4.24;81.08;101103.55;103712;1292;24446;-60
2024/02/19 02:36:56;;;;;;;38.90;22.60;;;;;;;4.23;81.10;101097.21;103749;1304;22613;-60
2024/02/19 02:39:22;;;;;;;34.90;22.20;;;;;;;4.22;81.48;101089.18;103671;1308;22642;-61
2024/02/19 02:41:48;;;;;;;40.80;23.30;;;;;;;4.21;81.58;101081.83;103640;1307;22574;-60
2024/02/19 02:44:15;;;;;;;40.10;22.20;;;;;;;4.22;82.43;101079.98;103447;1294;25453;-61
2024/02/19 02:46:40;;;;;;;37.30;22.90;;;;;;;4.22;82.50;101077.06;103358;1298;24249;-60
2024/02/19 02:49:06;;;;;;;33.70;21.20;;;;;;;4.22;82.65;101072.29;103702;1295;25425;-60
2024/02/19 02:51:31;;;;;;;38.20;23.80;;;;;;;4.21;82.49;101067.15;103543;1304;25503;-59
2024/02/19 02:53:58;;;;;;;43.80;24.20;;;;;;;4.18;84.35;101060.10;103668;1291;22611;-59
2024/02/19 02:56:23;;;;;;;39.80;23.70;;;;;;;4.14;89.33;101057.33;105819;1295;25268;-60
2024/02/19 02:58:49;;;;;;;42.20;25.30;;;;;;;4.10;90.74;101054.20;103669;1295;22572;-57
2024/02/19 03:01:25;;;;;;;40.70;25.30;;;;;;;4.07;89.31;101049.70;103358;1304;22598;-60
2024/02/19 03:03:51;;;;;;;45.50;25.70;;;;;;;4.03;88.27;101044.34;107467;1288;22274;-60
2024/02/19 03:06:17;;;;;;;41.10;24.90;;;;;;;3.99;88.58;101040.87;107496;1304;22406;-56
2024/02/19 03:08:45;;;;;;;41.40;24.90;;;;;;;3.95;88.67;101032.27;104753;1301;23027;-58
2024/02/19 03:11:12;;;;;;;48.00;26.40;;;;;;;3.90;89.43;101029.27;107470;1305;22256;-59
2024/02/19 03:13:37;;;;;;;49.40;26.30;;;;;;;3.87;88.99;101028.71;103566;1288;23869;-60
2024/02/19 03:16:05;;;;;;;45.50;27.00;;;;;;;3.82;89.77;101018.90;103310;1295;22672;-60
2024/02/19 03:18:32;;;;;;;42.80;25.90;;;;;;;3.78;88.44;101013.04;106994;1310;24578;-61
2024/02/19 03:20:57;;;;;;;;;;;;;;;3.78;88.96;101012.69;103586;1304;22543;-60
2024/02/19 03:23:23;;;;;;;40.60;26.90;;;;;;;3.76;88.81;101011.46;103188;1304;22581;-61
2024/02/19 03:25:49;;;;;;;45.00;27.40;;;;;;;3.74;89.21;101002.39;103424;1291;25632;-57
2024/02/19 03:28:15;;;;;;;42.30;26.30;;;;;;;3.74;87.57;100998.63;103588;1304;22841;-64
2024/02/19 03:30:41;;;;;;;44.40;25.30;;;;;;;3.71;89.67;100991.25;103447;1307;22592;-58
2024/02/19 03:33:08;;;;;;;42.60;26.40;;;;;;;3.70;88.95;100992.42;103624;1304;22619;-57
2024/02/19 03:35:33;;;;;;;44.20;26.40;;;;;;;3.69;91.01;100998.54;103499;1295;24431;-60
2024/02/19 03:37:59;;;;;;;40.80;26.40;;;;;;;3.68;91.01;100995.63;103448;1301;25554;-60
2024/02/19 03:40:25;;;;;;;42.70;27.60;;;;;;;3.68;89.35;100992.05;103514;1297;25469;-58
2024/02/19 03:42:50;;;;;;;43.40;27.60;;;;;;;3.69;88.77;100986.61;103448;1295;23139;-59
2024/02/19 03:45:19;;;;;;;47.60;28.70;;;;;;;3.69;88.19;100976.56;103461;1289;22826;-60
2024/02/19 03:47:46;;;;;;;43.60;28.10;;;;;;;3.70;90.15;100968.73;103522;1304;27177;-60
2024/02/19 03:50:12;;;;;;;39.50;25.40;;;;;;;3.71;88.80;100966.86;103404;1304;27619;-59
2024/02/19 03:52:37;;;;;;;43.20;26.70;;;;;;;3.71;89.18;100961.42;103406;1295;22590;-61
2024/02/19 03:55:04;;;;;;;44.00;26.60;;;;;;;3.73;87.81;100966.05;103473;1291;22549;-61
2024/02/19 03:57:30;;;;;;;41.40;26.20;;;;;;;3.76;88.82;100962.02;105935;1307;22580;-59
2024/02/19 03:59:55;;;;;;;47.10;26.30;;;;;;;3.78;88.82;100958.97;103516;1303;25374;-63
2024/02/19 04:02:21;;;;;;;43.50;25.60;;;;;;;3.81;87.64;100961.25;103711;1304;22670;-59
2024/02/19 04:04:47;;;;;;;45.90;26.20;;;;;;;3.82;88.12;100949.67;103505;1287;22670;-58
2024/02/19 04:07:12;;;;;;;41.00;25.10;;;;;;;3.84;88.00;100944.92;103441;1304;25398;-59
2024/02/19 04:09:38;;;;;;;40.10;25.20;;;;;;;3.85;88.36;100940.68;103469;1295;23240;-59
2024/02/19 04:12:05;;;;;;;36.30;23.80;;;;;;;3.84;89.10;100938.96;103173;1304;24255;-60
2024/02/19 04:14:31;;;;;;;40.00;26.70;;;;;;;3.85;88.87;100938.13;104048;1304;22785;-60
2024/02/19 04:16:56;;;;;;;47.50;27.10;;;;;;;3.87;88.30;100934.74;103400;1291;22694;-61
2024/02/19 04:19:24;;;;;;;40.90;25.30;;;;;;;3.88;88.74;100934.42;103331;1304;22577;-61
2024/02/19 04:21:49;;;;;;;43.50;27.60;;;;;;;3.88;88.96;100931.19;103448;1295;24040;-58
2024/02/19 04:24:15;;;;;;;41.40;26.30;;;;;;;3.88;88.93;100928.80;104504;1310;307500;-60
2024/02/19 04:26:41;;;;;;;34.50;24.40;;;;;;;3.89;89.50;100923.54;104016;1292;24443;-59
2024/02/19 04:29:08;;;;;;;40.20;26.30;;;;;;;3.91;89.08;100915.37;103401;1302;22614;-61
2024/02/19 04:31:34;;;;;;;45.80;27.80;;;;;;;3.90;88.89;100915.88;103357;1298;22614;-59
2024/02/19 04:34:00;;;;;;;39.30;27.40;;;;;;;3.91;89.52;100915.04;103439;1304;24269;-65
2024/02/19 04:36:25;;;;;;;43.60;26.70;;;;;;;3.89;89.67;100910.56;103499;1291;24172;-57
2024/02/19 04:38:51;;;;;;;45.80;28.80;;;;;;;3.88;89.56;100905.95;103370;1304;22559;-60
2024/02/19 04:41:16;;;;;;;47.00;27.50;;;;;;;3.86;90.98;100902.85;103324;1303;25544;-59
2024/02/19 04:43:42;;;;;;;47.60;29.50;;;;;;;3.83;90.58;100895.97;103408;1304;22600;-59
2024/02/19 04:46:07;;;;;;;50.70;29.60;;;;;;;3.80;92.12;100891.48;103352;1291;23327;-58
2024/02/19 04:48:36;;;;;;;43.40;28.20;;;;;;;3.77;91.71;100882.23;103384;1306;22574;-60
2024/02/19 04:51:02;;;;;;;55.50;30.80;;;;;;;3.75;93.75;100881.52;99636;1303;5004155;-59
2024/02/19 04:53:28;;;;;;;46.90;29.70;;;;;;;3.72;93.71;100878.23;103359;1304;22569;-60
2024/02/19 04:55:53;;;;;;;52.70;30.90;;;;;;;3.71;93.22;100874.46;103382;1289;24277;-60
2024/02/19 04:58:19;;;;;;;59.50;31.60;;;;;;;3.70;92.82;100873.94;103367;1308;23583;-58
2024/02/19 05:00:45;;;;;;;50.20;30.00;;;;;;;3.71;93.19;100869.17;103455;1302;22572;-57
2024/02/19 05:03:11;;;;;;;55.10;31.40;;;;;;;3.71;93.49;100866.80;103457;1304;22575;-60
2024/02/19 05:05:36;;;;;;;57.20;32.10;;;;;;;3.72;92.97;100865.45;103430;1304;22575;-58
2024/02/19 05:08:03;;;;;;;54.90;30.00;;;;;;;3.73;92.64;100860.69;103390;1292;22688;-58
2024/02/19 05:10:29;;;;;;;55.50;31.00;;;;;;;3.75;94.16;100860.38;103329;1310;22584;-59
2024/02/19 05:12:54;;;;;;;51.50;31.40;;;;;;;3.78;93.85;100857.52;103358;1305;22597;-56
2024/02/19 05:15:20;;;;;;;46.70;28.90;;;;;;;3.78;93.77;100850.36;103260;1302;22901;-58
2024/02/19 05:17:45;;;;;;;54.50;31.50;;;;;;;3.78;95.76;100845.08;103085;1304;22605;-59
2024/02/19 05:20:11;;;;;;;54.60;33.00;;;;;;;3.78;94.49;100837.76;103380;1301;24406;-58
2024/02/19 05:22:37;;;;;;;60.10;33.80;;;;;;;3.79;93.74;100836.23;106697;1308;23812;-54
2024/02/19 05:25:03;;;;;;;61.50;33.40;;;;;;;3.81;94.16;100835.07;103328;1295;22586;-59
2024/02/19 05:27:29;;;;;;;56.10;32.20;;;;;;;3.83;96.28;100836.29;103182;1289;22549;-58
2024/02/19 05:29:54;;;;;;;60.50;33.60;;;;;;;3.85;95.67;100829.84;105821;1303;22673;-60
2024/02/19 05:32:20;;;;;;;60.10;34.00;;;;;;;3.87;94.05;100829.70;103005;1300;27038;-58
2024/02/19 05:34:45;;;;;;;59.10;34.80;;;;;;;3.89;95.33;100830.93;103021;1310;22588;-59
2024/02/19 05:37:11;;;;;;;57.90;33.80;;;;;;;3.91;97.53;100828.23;103286;1287;22683;-58
2024/02/19 05:39:36;;;;;;;62.10;35.10;;;;;;;3.92;94.89;100825.69;103386;1302;22582;-58
2024/02/19 05:42:03;;;;;;;65.10;34.60;;;;;;;3.94;95.46;100820.27;103189;1298;24343;-58
2024/02/19 05:44:29;;;;;;;58.90;35.70;;;;;;;3.96;95.48;100818.24;103307;1304;22594;-58
2024/02/19 05:46:55;;;;;;;62.40;35.90;;;;;;;3.99;95.79;100812.83;103499;1304;24052;-58
2024/02/19 05:49:20;;;;;;;64.10;35.80;;;;;;;4.00;95.41;100809.94;103679;1305;51780;-56
2024/02/19 05:51:46;;;;;;;66.10;35.70;;;;;;;4.02;96.22;100808.09;103802;1297;22620;-60
2024/02/19 05:54:11;;;;;;;64.40;35.60;;;;;;;4.04;97.29;100805.21;103826;1304;25415;-60
2024/02/19 05:56:36;;;;;;;60.70;34.80;;;;;;;4.06;96.91;100801.83;103933;1289;22581;-58
2024/02/19 05:59:02;;;;;;;64.00;33.80;;;;;;;4.09;97.35;100801.52;104112;1292;24371;-56
2024/02/19 06:01:27;;;;;;;63.40;33.20;;;;;;;4.12;94.97;100795.42;103659;1297;22807;-58
2024/02/19 06:03:54;;;;;;;61.30;35.00;;;;;;;4.14;94.76;100795.11;104052;1299;25271;-59
2024/02/19 06:06:19;;;;;;;61.80;34.90;;;;;;;4.16;96.40;100792.73;103876;1304;22571;-60
2024/02/19 06:08:45;;;;;;;67.80;37.70;;;;;;;4.19;97.59;100794.13;103990;1291;24138;-58
2024/02/19 06:11:10;;;;;;;70.40;35.80;;;;;;;4.22;97.86;100792.97;103953;1294;25396;-57
2024/02/19 06:13:36;;;;;;;65.50;34.90;;;;;;;4.23;96.97;100788.38;103989;1292;22587;-56
2024/02/19 06:16:01;;;;;;;70.10;37.50;;;;;;;4.26;96.53;100785.34;103839;1296;22734;-60
2024/02/19 06:18:27;;;;;;;69.30;38.10;;;;;;;4.27;95.02;100782.11;104158;1292;22572;-59
2024/02/19 06:20:53;;;;;;;70.30;35.40;;;;;;;4.29;96.07;100780.60;104047;1292;24253;-60
2024/02/19 06:23:18;;;;;;;66.00;34.60;;;;;;;4.31;98.50;100781.31;104121;1295;23768;-58
2024/02/19 06:25:44;;;;;;;69.20;35.90;;;;;;;4.33;95.95;100777.23;103444;1304;26556;-61
2024/02/19 06:28:10;;;;;;;68.90;33.30;;;;;;;4.36;94.83;100776.42;103531;1291;25271;-63
2024/02/19 06:30:35;;;;;;;60.90;33.00;;;;;;;4.39;96.08;100778.33;103235;1303;24350;-62
2024/02/19 06:33:01;;;;;;;71.70;36.30;;;;;;;4.43;95.24;100775.64;103275;1291;23372;-63
2024/02/19 06:35:28;;;;;;;66.40;37.00;;;;;;;4.45;95.92;100771.75;103241;1303;22674;-63
2024/02/19 06:37:53;;;;;;;70.60;36.60;;;;;;;4.47;97.18;100767.50;107314;1305;23246;-61
2024/02/19 06:40:19;;;;;;;66.30;34.70;;;;;;;4.49;95.33;100768.71;107460;1304;23123;-61
2024/02/19 06:42:44;;;;;;;64.10;33.80;;;;;;;4.53;95.83;100761.94;104457;1302;24755;-63
2024/02/19 06:45:10;;;;;;;62.90;33.00;;;;;;;4.57;95.23;100759.42;103937;1304;24250;-61
2024/02/19 06:47:36;;;;;;;61.50;33.00;;;;;;;4.62;96.41;100754.35;103878;1305;26561;-60
2024/02/19 06:50:02;;;;;;;54.30;32.00;;;;;;;4.67;94.87;100756.78;103624;1306;24034;-61
2024/02/19 06:52:28;;;;;;;52.40;31.10;;;;;;;4.73;95.61;100758.87;102959;1304;22564;-63
2024/02/19 06:54:54;;;;;;;52.80;31.20;;;;;;;4.77;95.83;100755.33;107040;1303;22492;-62
2024/02/19 06:57:19;;;;;;;52.90;30.00;;;;;;;4.78;96.28;100751.07;107161;1303;22359;-63
2024/02/19 06:59:45;;;;;;;48.90;30.40;;;;;;;4.79;96.88;100748.52;106676;1304;23283;-61
2024/02/19 07:02:11;;;;;;;53.50;31.30;;;;;;;4.80;97.51;100745.11;103892;1310;24305;-65
2024/02/19 07:04:39;;;;;;;54.00;32.00;;;;;;;4.82;96.04;100745.98;103889;1303;26662;-60
2024/02/19 07:07:08;;;;;;;55.20;30.20;;;;;;;4.84;95.45;100744.98;103974;1298;24149;-59
2024/02/19 07:09:35;;;;;;;52.40;31.30;;;;;;;4.86;97.02;100746.54;106644;1294;22592;-61
2024/02/19 07:12:01;;;;;;;56.80;30.10;;;;;;;4.87;98.68;100744.66;103397;1303;24611;-60
2024/02/19 07:14:26;;;;;;;60.90;32.90;;;;;;;4.89;96.41;100745.20;103830;1298;23402;-62
2024/02/19 07:16:51;;;;;;;58.90;33.40;;;;;;;4.91;97.82;100737.53;103917;1295;23896;-60
2024/02/19 07:19:17;;;;;;;53.90;31.10;;;;;;;4.92;99.19;100739.77;103997;1291;22843;-56
2024/02/19 07:21:43;;;;;;;59.70;31.50;;;;;;;4.95;99.28;100733.98;103983;1305;22603;-52
2024/02/19 07:24:08;;;;;;;49.20;29.30;;;;;;;4.99;98.04;100735.73;103943;1304;25364;-56
2024/02/19 07:26:34;;;;;;;48.70;28.00;;;;;;;5.04;98.60;100734.23;103960;1305;24781;-53
2024/02/19 07:28:59;;;;;;;46.60;27.60;;;;;;;5.10;97.78;100727.95;103902;1301;22588;-56
2024/02/19 07:31:25;;;;;;;48.00;26.50;;;;;;;5.15;97.34;100731.94;103806;1304;22522;-54
2024/02/19 07:33:50;;;;;;;45.70;27.60;;;;;;;5.20;99.98;100731.61;103845;1307;22566;-56
2024/02/19 07:36:16;;;;;;;51.40;27.70;;;;;;;5.22;100.00;100724.77;103830;1310;22683;-57
2024/02/19 07:38:41;;;;;;;46.10;28.60;;;;;;;5.26;99.62;100722.77;103877;1293;26295;-55
2024/02/19 07:41:17;;;;;;;56.90;27.30;;;;;;;5.31;99.88;100717.66;103703;1292;22555;-57
2024/02/19 07:43:44;;;;;;;55.90;29.30;;;;;;;5.36;99.97;100710.18;103996;1295;24503;-54
2024/02/19 07:46:10;;;;;;;52.10;28.80;;;;;;;5.39;99.51;100707.98;103894;1310;22567;-58
2024/02/19 07:48:36;;;;;;;55.60;29.40;;;;;;;5.42;99.93;100706.11;103985;1305;25582;-57
2024/02/19 07:51:01;;;;;;;49.00;27.60;;;;;;;5.47;99.22;100700.67;103825;1291;22614;-57
2024/02/19 07:53:27;;;;;;;46.80;27.90;;;;;;;5.49;99.79;100696.77;103824;1307;22625;-54
2024/02/19 07:56:05;;;;;;;45.40;27.30;;;;;;;5.52;99.38;100695.58;103612;1306;26144;-55
2024/02/19 07:58:34;;;;;;;50.40;27.90;;;;;;;5.58;98.45;100690.31;103702;1307;23167;-55
2024/02/19 08:01:03;;;;;;;42.00;27.10;;;;;;;5.63;99.03;100690.34;104009;1292;22562;-57
2024/02/19 08:03:28;;;;;;;45.10;25.90;;;;;;;5.71;98.09;100690.54;107338;1308;22905;-57
2024/02/19 08:05:54;;;;;;;35.00;23.60;;;;;;;5.76;97.23;100685.42;107178;1307;22342;-56
2024/02/19 08:08:19;;;;;;;34.30;22.90;;;;;;;5.80;96.79;100686.30;107323;1304;22973;-53
2024/02/19 08:10:45;;;;;;;31.40;21.90;;;;;;;5.83;97.45;100682.20;107185;1294;22939;-54
2024/02/19 08:13:10;;;;;;;34.20;23.10;;;;;;;5.84;99.73;100674.16;107289;1310;22490;-56
2024/02/19 08:15:38;;;;;;;34.00;23.10;;;;;;;5.89;100.00;100675.23;107187;1303;23007;-55
2024/02/19 08:18:04;;;;;;;32.70;22.90;;;;;;;5.98;99.96;100677.51;107214;1303;22412;-57
2024/02/19 08:20:30;;;;;;;28.70;20.20;;;;;;;6.06;99.91;100672.41;107267;1291;22810;-55
2024/02/19 08:22:56;;;;;;;30.30;22.40;;;;;;;6.18;99.69;100674.66;107261;1295;22446;-56
2024/02/19 08:25:23;;;;;;;32.80;24.00;;;;;;;6.27;99.89;100673.64;107255;1307;22246;-57
2024/02/19 08:27:48;;;;;;;26.90;20.40;;;;;;;6.36;99.95;100668.86;107299;1303;22240;-56
2024/02/19 08:30:14;;;;;;;30.00;22.70;;;;;;;6.47;99.93;100666.66;107160;1303;22364;-56
2024/02/19 08:32:42;;;;;;;31.40;22.40;;;;;;;6.50;100.00;100665.80;107301;1303;22386;-61
2024/02/19 08:35:08;;;;;;;26.40;21.70;;;;;;;6.58;100.00;100667.70;107228;1307;23103;-57
2024/02/19 08:37:34;;;;;;;27.80;20.20;;;;;;;6.63;100.00;100664.97;107244;1310;22372;-59
2024/02/19 08:39:59;;;;;;;31.60;23.10;;;;;;;6.67;100.00;100660.17;107111;1289;22917;-59
2024/02/19 08:42:25;;;;;;;33.40;22.50;;;;;;;6.72;100.00;100661.02;106613;1304;310192;-61
2024/02/19 08:44:51;;;;;;;28.40;20.40;;;;;;;6.79;100.00;100662.71;107281;1311;22405;-62
2024/02/19 08:47:17;;;;;;;30.00;22.10;;;;;;;6.79;100.00;100659.64;107276;1303;22661;-60
2024/02/19 08:49:43;;;;;;;28.20;20.50;;;;;;;6.81;100.00;100656.55;104865;1306;22562;-61
2024/02/19 08:52:09;;;;;;;28.50;20.90;;;;;;;6.85;100.00;100655.87;103856;1296;24317;-60
2024/02/19 08:54:34;;;;;;;27.80;20.80;;;;;;;6.87;100.00;100656.04;103754;1304;24324;-60
2024/02/19 08:57:00;;;;;;;30.40;22.60;;;;;;;6.89;100.00;100656.21;103843;1307;26676;-58
2024/02/19 08:59:26;;;;;;;35.40;25.60;;;;;;;6.90;100.00;100655.87;103814;1307;22619;-58
2024/02/19 09:01:52;;;;;;;31.20;23.20;;;;;;;6.87;100.00;100654.15;107189;1292;22377;-60
2024/02/19 09:04:19;;;;;;;29.80;22.50;;;;;;;6.89;100.00;100654.84;107121;1310;22244;-61
2024/02/19 09:06:44;;;;;;;32.40;22.90;;;;;;;6.91;100.00;100651.58;107265;1304;22266;-60
2024/02/19 09:09:10;;;;;;;25.00;19.60;;;;;;;6.93;100.00;100649.36;107322;1310;22765;-59
2024/02/19 09:11:36;;;;;;;29.70;21.10;;;;;;;6.95;100.00;100642.84;107262;1295;22461;-61
2024/02/19 09:14:04;;;;;;;27.30;20.80;;;;;;;7.00;100.00;100643.02;107220;1306;22336;-61
2024/02/19 09:16:31;;;;;;;22.50;18.10;;;;;;;7.04;100.00;100641.98;107183;1303;22363;-60
2024/02/19 09:18:58;;;;;;;26.60;19.30;;;;;;;7.06;100.00;100643.52;107214;1303;22237;-61
2024/02/19 09:21:23;;;;;;;21.10;17.80;;;;;;;7.05;100.00;100642.15;107277;1289;22269;-59
2024/02/19 09:23:49;;;;;;;21.70;16.00;;;;;;;7.11;100.00;100644.89;107351;1305;22613;-61
2024/02/19 09:26:14;;;;;;;17.60;15.20;;;;;;;7.11;100.00;100642.14;107403;1304;22522;-60
2024/02/19 09:28:40;;;;;;;25.20;16.50;;;;;;;7.10;100.00;100640.59;107369;1310;22894;-60
2024/02/19 09:31:06;;;;;;;21.20;16.00;;;;;;;7.12;100.00;100643.34;106149;1288;22560;-60
2024/02/19 09:33:33;;;;;;;22.90;17.70;;;;;;;7.13;100.00;100637.51;103738;1288;25107;-64
2024/02/19 09:35:58;;;;;;;20.80;16.20;;;;;;;7.15;100.00;100637.84;103808;1310;25447;-60
2024/02/19 09:38:24;;;;;;;20.90;16.80;;;;;;;7.18;100.00;100635.95;103854;1304;25467;-59
2024/02/19 09:40:49;;;;;;;17.10;15.20;;;;;;;7.19;100.00;100637.84;103729;1303;22799;-60
2024/02/19 09:43:17;;;;;;;23.30;17.90;;;;;;;7.20;100.00;100632.18;103861;1298;25423;-61
2024/02/19 09:45:43;;;;;;;20.30;17.10;;;;;;;7.20;100.00;100632.52;103899;1305;25444;-60
2024/02/19 09:48:12;;;;;;;21.60;18.20;;;;;;;7.18;100.00;100635.27;103918;1294;23777;-61
2024/02/19 09:50:47;;;;;;;21.20;17.50;;;;;;;7.19;100.00;100636.81;103717;1304;23828;-61
2024/02/19 09:53:18;;;;;;;17.70;15.60;;;;;;;7.18;100.00;100640.25;107262;1293;22256;-60
2024/02/19 09:55:45;;;;;;;23.20;17.90;;;;;;;7.19;100.00;100637.50;104522;1305;22583;-55
2024/02/19 09:58:11;;;;;;;19.80;16.20;;;;;;;7.20;100.00;100638.88;107063;1310;22385;-61
2024/02/19 10:00:37;;;;;;;23.10;17.50;;;;;;;7.23;100.00;100636.80;105072;1304;22619;-61
2024/02/19 10:03:02;;;;;;;18.30;15.60;;;;;;;7.24;100.00;100636.80;103864;1300;22565;-60
2024/02/19 10:05:28;;;;;;;17.80;14.80;;;;;;;7.27;100.00;100634.73;103774;1304;22632;-59
2024/02/19 10:07:59;;;;;;;16.10;14.10;;;;;;;7.27;100.00;100635.92;104474;1310;23973;-58
2024/02/19 10:10:25;;;;;;;17.50;14.70;;;;;;;7.27;100.00;100636.27;104549;1305;22652;-59
2024/02/19 10:12:51;;;;;;;14.60;13.10;;;;;;;7.26;100.00;100635.25;104446;1310;22564;-58
2024/02/19 10:15:16;;;;;;;14.10;12.60;;;;;;;7.26;100.00;100632.86;104511;1298;22814;-58
2024/02/19 10:17:42;;;;;;;12.10;10.90;;;;;;;7.30;100.00;100632.64;104867;1303;23818;-59
2024/02/19 10:20:08;;;;;;;11.40;10.30;;;;;;;7.36;100.00;100636.92;105114;1303;23491;-58
2024/02/19 10:22:34;;;;;;;12.10;10.80;;;;;;;7.34;100.00;100637.61;107376;1303;22274;-58
2024/02/19 10:25:07;;;;;;;11.50;10.30;;;;;;;7.36;100.00;100636.23;107521;1298;22247;-60
2024/02/19 10:27:34;;;;;;;10.70;9.30;;;;;;;7.38;100.00;100637.09;107097;1305;292593;-60
2024/02/19 10:30:00;;;;;;;;;;;;;;;7.40;100.00;100644.12;106524;1304;25486;-58
2024/02/19 10:32:26;;;;;;;;;;;;;;;7.39;100.00;100643.09;104579;1290;22546;-59
2024/02/19 10:34:52;;;;;;;8.50;7.10;;;;;;;7.41;100.00;100637.59;104305;1306;23302;-59
2024/02/19 10:37:18;;;;;;;7.50;6.40;;;;;;;7.45;100.00;100637.92;104468;1304;23126;-55
2024/02/19 10:39:43;;;;;;;5.80;5.30;;;;;;;7.45;100.00;100638.27;104108;1310;22761;-59
2024/02/19 10:42:09;;;;;;;5.20;4.70;;;;;;;7.44;100.00;100642.73;104819;1296;22603;-58
2024/02/19 10:44:35;;;;;;;4.80;4.40;;;;;;;7.44;100.00;100642.22;104997;1291;26466;-59
2024/02/19 10:47:03;;;;;;;5.80;4.60;;;;;;;7.43;100.00;100645.30;104427;1308;22603;-59
2024/02/19 10:49:29;;;;;;;297.10;129.40;;;;;;;7.39;100.00;100641.54;107363;1310;23597;-58
2024/02/19 10:51:57;;;;;;;3.60;3.10;;;;;;;7.43;100.00;100640.50;107414;1307;22228;-57
2024/02/19 10:54:23;;;;;;;3.70;3.30;;;;;;;7.38;100.00;100644.45;107390;1302;22847;-59
2024/02/19 10:56:48;;;;;;;3.20;2.90;;;;;;;7.38;100.00;100649.44;105796;1303;22573;-58
2024/02/19 10:59:15;;;;;;;2.70;2.30;;;;;;;7.44;100.00;100652.67;104926;1304;23671;-58
2024/02/19 11:01:47;;;;;;;1.50;1.20;;;;;;;7.42;100.00;100650.97;104943;1301;22621;-57
2024/02/19 11:04:15;;;;;;;1.70;0.90;;;;;;;7.31;100.00;100661.28;105131;1301;22813;-54